RJK weather

Rijeka Airport
Rijeka, Primorje-Gorski Kotar County, Croatia

Public forecast

Using degrees Celsius for public forecast. Weather courtesy of forecast.io.

METAR (pilot weather report)

Retrieved 2019/05/24 06:30 UTC (18 minutes ago):

LDRI 240630Z VRB01KT 9999 FEW059 19/12 Q1014

TAF (pilot weather forecast)

Retrieved 2019/05/24 06:26 UTC (22 minutes ago):

TAF LDRI 240525Z 2406/2506 VRB02KT CAVOK TX21/2413Z TN14/2504Z